createdAt,value
2022-11-12T00:00:19.366Z,8.37
2022-11-12T00:03:05.648Z,8.24
2022-11-12T00:05:51.664Z,8.16
2022-11-12T00:08:38.367Z,8.10
2022-11-12T00:11:24.247Z,8.07
2022-11-12T00:14:10.234Z,8.00
2022-11-12T00:16:56.313Z,7.97
2022-11-12T00:19:42.258Z,7.98
2022-11-12T00:22:28.437Z,7.96
2022-11-12T00:25:14.776Z,7.98
2022-11-12T00:28:02.887Z,8.01
2022-11-12T00:30:48.787Z,8.02
2022-11-12T00:33:34.787Z,8.04
2022-11-12T00:36:21.227Z,8.04
2022-11-12T00:39:07.057Z,8.01
2022-11-12T00:41:53.327Z,7.99
2022-11-12T00:44:39.373Z,7.88
2022-11-12T00:47:25.341Z,7.92
2022-11-12T00:50:11.592Z,8.03
2022-11-12T00:52:57.656Z,7.96
2022-11-12T00:55:43.646Z,7.89
2022-11-12T00:58:34.818Z,7.84
2022-11-12T01:01:21.811Z,7.89
2022-11-12T01:04:08.387Z,7.93
2022-11-12T01:06:54.773Z,7.82
2022-11-12T01:09:40.582Z,7.83
2022-11-12T01:12:26.784Z,7.73
2022-11-12T01:15:12.967Z,7.91
2022-11-12T01:17:59.149Z,7.97
2022-11-12T01:20:45.127Z,7.99
2022-11-12T01:23:36.114Z,8.05
2022-11-12T01:26:23.097Z,8.10
2022-11-12T01:29:09.208Z,8.14
2022-11-12T01:31:55.216Z,8.23
2022-11-12T01:34:41.083Z,8.33
2022-11-12T01:37:26.987Z,8.28
2022-11-12T01:40:13.031Z,8.39
2022-11-12T01:42:59.277Z,8.52
2022-11-12T01:45:48.779Z,8.67
2022-11-12T01:48:41.905Z,8.91
2022-11-12T01:51:34.814Z,8.78
2022-11-12T01:54:23.126Z,8.70
2022-11-12T01:57:11.326Z,8.55
2022-11-12T02:00:02.096Z,8.47
2022-11-12T02:02:55.106Z,8.40
2022-11-12T02:05:42.779Z,8.35
2022-11-12T02:08:30.927Z,8.41
2022-11-12T02:11:21.796Z,8.37
2022-11-12T02:14:08.165Z,8.34
2022-11-12T02:16:54.219Z,8.36
2022-11-12T02:19:40.527Z,8.42
2022-11-12T02:22:26.707Z,8.44
2022-11-12T02:25:24.030Z,8.52
2022-11-12T02:28:10.587Z,8.59
2022-11-12T02:30:56.507Z,8.65
2022-11-12T02:33:42.356Z,8.69
2022-11-12T02:36:29.157Z,8.71
2022-11-12T02:39:15.082Z,8.72
2022-11-12T02:42:01.241Z,8.69
2022-11-12T02:44:47.427Z,8.58
2022-11-12T02:47:34.008Z,8.41
2022-11-12T02:50:20.414Z,8.37
2022-11-12T02:53:06.426Z,8.49
2022-11-12T02:55:52.556Z,8.32
2022-11-12T02:58:38.745Z,8.18
2022-11-12T03:01:24.790Z,8.05
2022-11-12T03:04:10.555Z,7.97
2022-11-12T03:06:56.471Z,7.93
2022-11-12T03:09:42.305Z,7.93
2022-11-12T03:12:30.404Z,7.91
2022-11-12T03:15:17.815Z,7.85
2022-11-12T03:18:04.246Z,7.82
2022-11-12T03:20:52.077Z,7.80
2022-11-12T03:23:38.415Z,7.80
2022-11-12T03:26:24.403Z,7.82
2022-11-12T03:29:10.812Z,7.86
2022-11-12T03:31:57.086Z,7.93
2022-11-12T03:34:43.014Z,7.99
2022-11-12T03:37:28.965Z,8.07
2022-11-12T03:40:14.966Z,8.09
2022-11-12T03:43:00.851Z,8.19
2022-11-12T03:45:47.116Z,8.18
2022-11-12T03:48:33.282Z,8.33
2022-11-12T03:51:21.425Z,8.36
2022-11-12T03:54:07.718Z,8.23
2022-11-12T03:56:53.898Z,8.08
2022-11-12T03:59:39.812Z,7.98
2022-11-12T04:02:26.906Z,7.86
2022-11-12T04:05:31.714Z,7.74
2022-11-12T04:08:37.988Z,7.64
2022-11-12T04:11:24.203Z,8.24
2022-11-12T04:14:10.402Z,8.62
2022-11-12T04:17:14.694Z,8.19
2022-11-12T04:20:19.456Z,7.94
2022-11-12T04:23:05.507Z,7.76
2022-11-12T04:26:10.028Z,7.69
2022-11-12T04:29:14.656Z,7.69
2022-11-12T04:32:00.584Z,7.73
2022-11-12T04:34:46.669Z,7.67
2022-11-12T04:37:46.528Z,7.54
2022-11-12T04:40:51.077Z,7.39
2022-11-12T04:43:55.800Z,7.21
2022-11-12T04:46:42.043Z,7.08
2022-11-12T04:49:29.286Z,6.97
2022-11-12T04:52:15.888Z,6.90
2022-11-12T04:55:02.276Z,6.87
2022-11-12T04:57:48.406Z,6.89
2022-11-12T05:00:34.394Z,6.97
2022-11-12T05:03:20.599Z,6.98
2022-11-12T05:06:30.153Z,6.93
2022-11-12T05:09:16.097Z,6.85
2022-11-12T05:12:02.745Z,6.76
2022-11-12T05:14:48.727Z,6.69
2022-11-12T05:17:34.929Z,6.61
2022-11-12T05:20:21.140Z,6.52
2022-11-12T05:23:07.858Z,6.44
2022-11-12T05:25:54.102Z,6.38
2022-11-12T05:28:40.156Z,6.36
2022-11-12T05:31:26.052Z,6.42
2022-11-12T05:34:12.226Z,6.40
2022-11-12T05:36:58.595Z,6.48
2022-11-12T05:39:44.814Z,6.50
2022-11-12T05:42:30.856Z,6.52
2022-11-12T05:45:16.721Z,6.52
2022-11-12T05:48:02.856Z,6.49
2022-11-12T05:51:15.480Z,6.44
2022-11-12T05:54:00.294Z,6.37
2022-11-12T05:56:46.994Z,6.33
2022-11-12T05:59:32.985Z,6.31
2022-11-12T06:02:19.292Z,6.31
2022-11-12T06:05:05.746Z,6.34
2022-11-12T06:07:51.905Z,6.45
2022-11-12T06:10:37.882Z,6.70
2022-11-12T06:13:24.969Z,7.18
2022-11-12T06:16:11.327Z,7.44
2022-11-12T06:18:57.883Z,7.74
2022-11-12T06:21:44.082Z,7.76
2022-11-12T06:24:35.054Z,7.86
2022-11-12T06:27:21.933Z,8.02
2022-11-12T06:30:09.465Z,8.17
2022-11-12T06:32:55.631Z,8.45
2022-11-12T06:35:43.176Z,8.30
2022-11-12T06:38:35.078Z,8.25
2022-11-12T06:41:21.104Z,8.34
2022-11-12T06:44:07.055Z,8.32
2022-11-12T06:46:54.422Z,8.46
2022-11-12T06:49:40.521Z,8.80
2022-11-12T06:52:26.428Z,9.05
2022-11-12T06:55:12.627Z,9.18
2022-11-12T06:57:58.857Z,9.61
2022-11-12T07:00:44.791Z,10.14
2022-11-12T07:03:30.942Z,10.63
2022-11-12T07:06:20.684Z,11.10
2022-11-12T07:09:07.544Z,11.69
2022-11-12T07:11:53.816Z,12.32
2022-11-12T07:14:39.998Z,12.82
2022-11-12T07:17:26.226Z,13.13
2022-11-12T07:20:13.068Z,13.34
2022-11-12T07:23:02.562Z,13.30
2022-11-12T07:25:55.962Z,13.28
2022-11-12T07:28:42.424Z,13.30
2022-11-12T07:31:28.306Z,13.49
2022-11-12T07:34:14.337Z,13.39
2022-11-12T07:37:00.286Z,13.83
2022-11-12T07:39:46.073Z,14.08
2022-11-12T07:42:35.647Z,14.32
2022-11-12T07:45:21.772Z,14.49
2022-11-12T07:48:07.562Z,14.29
2022-11-12T07:50:53.419Z,14.13
2022-11-12T07:53:39.486Z,14.37
2022-11-12T07:56:27.948Z,14.68
2022-11-12T07:59:13.826Z,14.76
2022-11-12T08:01:59.701Z,14.68
2022-11-12T08:04:45.567Z,14.62
2022-11-12T08:07:31.561Z,14.75
2022-11-12T08:10:17.367Z,14.74
2022-11-12T08:13:04.068Z,14.82
2022-11-12T08:15:52.363Z,14.69
2022-11-12T08:18:38.496Z,14.17
2022-11-12T08:21:25.207Z,14.02
2022-11-12T08:24:11.364Z,13.55
2022-11-12T08:26:57.386Z,13.61
2022-11-12T08:29:43.353Z,13.86
2022-11-12T08:32:29.458Z,13.76
2022-11-12T08:35:15.346Z,13.45
2022-11-12T08:38:03.517Z,13.21
2022-11-12T08:40:49.924Z,13.22
2022-11-12T08:43:35.955Z,13.26
2022-11-12T08:46:22.363Z,13.47
2022-11-12T08:49:08.344Z,13.71
2022-11-12T08:51:54.144Z,13.92
2022-11-12T08:54:40.283Z,13.72
2022-11-12T08:57:26.395Z,14.02
2022-11-12T09:00:13.327Z,13.89
2022-11-12T09:03:04.438Z,13.82
2022-11-12T09:05:52.029Z,13.64
2022-11-12T09:08:38.117Z,13.63
2022-11-12T09:11:24.284Z,13.75
2022-11-12T09:14:10.410Z,13.89
2022-11-12T09:16:56.438Z,13.76
2022-11-12T09:19:43.165Z,13.47
2022-11-12T09:22:29.558Z,13.32
2022-11-12T09:25:15.624Z,13.11
2022-11-12T09:28:08.279Z,13.08
2022-11-12T09:30:55.347Z,13.32
2022-11-12T09:33:41.457Z,13.01
2022-11-12T09:36:27.593Z,12.68
2022-11-12T09:39:13.788Z,12.45
2022-11-12T09:42:02.200Z,12.39
2022-11-12T09:45:18.674Z,12.19
2022-11-12T09:48:12.227Z,12.04
2022-11-12T09:51:07.735Z,12.20
2022-11-12T09:54:07.283Z,12.42
2022-11-12T09:56:54.516Z,12.68
2022-11-12T09:59:43.037Z,12.78
2022-11-12T10:02:36.082Z,12.57
2022-11-12T10:05:40.526Z,12.69
2022-11-12T10:08:35.698Z,12.83
2022-11-12T10:12:28.898Z,12.71
2022-11-12T10:16:08.941Z,12.58
2022-11-12T10:19:23.877Z,12.37
2022-11-12T10:22:35.006Z,12.40
2022-11-12T10:25:21.548Z,12.50
2022-11-12T10:28:38.371Z,12.56
2022-11-12T10:31:24.873Z,12.51
2022-11-12T10:34:14.548Z,12.45
2022-11-12T10:37:05.908Z,12.48
2022-11-12T10:39:52.258Z,12.47
2022-11-12T10:42:56.875Z,12.42
2022-11-12T10:45:44.776Z,12.50
2022-11-12T10:48:34.151Z,12.38
2022-11-12T10:51:27.027Z,12.40
2022-11-12T10:54:28.275Z,12.45
2022-11-12T10:57:24.867Z,12.32
2022-11-12T11:00:13.728Z,12.39
2022-11-12T11:03:02.120Z,12.50
2022-11-12T11:05:47.987Z,12.55
2022-11-12T11:08:59.773Z,12.52
2022-11-12T11:11:54.215Z,12.56
2022-11-12T11:14:40.703Z,12.51
2022-11-12T11:17:26.482Z,12.66
2022-11-12T11:20:31.107Z,12.81
2022-11-12T11:23:43.447Z,12.91
2022-11-12T11:26:46.577Z,12.92
2022-11-12T11:29:43.116Z,13.03
2022-11-12T11:32:41.946Z,13.01
2022-11-12T11:35:55.310Z,12.92
2022-11-12T11:38:47.252Z,12.73
2022-11-12T11:41:33.206Z,12.82
2022-11-12T11:44:37.237Z,12.87
2022-11-12T11:47:59.904Z,13.00
2022-11-12T11:51:26.256Z,12.99
2022-11-12T11:54:49.684Z,12.97
2022-11-12T11:57:43.230Z,13.02
2022-11-12T12:00:55.127Z,13.00
2022-11-12T12:04:02.110Z,13.12
2022-11-12T12:06:54.057Z,13.26
2022-11-12T12:13:47.095Z,13.43
2022-11-12T12:16:47.871Z,13.50
2022-11-12T12:19:52.181Z,13.48
2022-11-12T12:22:44.657Z,13.53
2022-11-12T12:25:36.151Z,13.57
2022-11-12T12:28:39.292Z,13.51
2022-11-12T12:31:31.311Z,13.50
2022-11-12T12:34:31.540Z,13.43
2022-11-12T12:37:39.582Z,13.30
2022-11-12T12:40:34.510Z,13.25
2022-11-12T12:43:27.112Z,13.29
2022-11-12T12:46:15.898Z,13.26
2022-11-12T12:49:05.262Z,13.11
2022-11-12T12:51:55.786Z,13.06
2022-11-12T12:54:42.109Z,13.02
2022-11-12T12:57:34.732Z,13.02
2022-11-12T13:00:41.795Z,12.98
2022-11-12T13:03:46.244Z,12.93
2022-11-12T13:06:33.842Z,12.81
2022-11-12T13:09:19.828Z,12.59
2022-11-12T13:12:09.081Z,12.48
2022-11-12T13:15:15.964Z,12.42
2022-11-12T13:18:02.007Z,12.42
2022-11-12T13:21:11.834Z,12.34
2022-11-12T13:24:12.735Z,12.25
2022-11-12T13:27:00.055Z,12.19
2022-11-12T13:29:47.465Z,12.11
2022-11-12T13:32:44.283Z,12.06
2022-11-12T13:35:39.961Z,11.98
2022-11-12T13:38:26.812Z,11.93
2022-11-12T13:41:19.678Z,11.83
2022-11-12T13:44:12.573Z,11.76
2022-11-12T13:46:58.785Z,11.79
2022-11-12T13:49:48.982Z,11.81
2022-11-12T13:52:35.971Z,11.74
2022-11-12T13:55:23.173Z,11.74
2022-11-12T13:58:32.112Z,11.71
2022-11-12T14:01:21.271Z,11.68
2022-11-12T14:04:11.571Z,11.62
2022-11-12T14:07:13.345Z,11.50
2022-11-12T14:10:20.374Z,11.41
2022-11-12T14:13:15.506Z,11.39
2022-11-12T14:16:22.989Z,11.39
2022-11-12T14:19:45.527Z,11.33
2022-11-12T14:22:41.758Z,11.28
2022-11-12T14:25:28.620Z,11.23
2022-11-12T14:28:33.235Z,11.24
2022-11-12T14:31:24.712Z,11.11
2022-11-12T14:34:21.508Z,10.95
2022-11-12T14:37:31.214Z,10.85
2022-11-12T14:40:19.103Z,10.72
2022-11-12T14:43:06.211Z,10.60
2022-11-12T14:45:54.854Z,10.50
2022-11-12T14:48:51.824Z,10.37
2022-11-12T14:51:47.383Z,10.28
2022-11-12T14:54:56.389Z,10.22
2022-11-12T14:57:42.604Z,10.20
2022-11-12T15:00:34.591Z,10.09
2022-11-12T15:03:30.874Z,10.19
2022-11-12T15:06:28.879Z,10.11
2022-11-12T15:09:22.015Z,9.94
2022-11-12T15:12:12.847Z,9.82
2022-11-12T15:15:25.189Z,9.71
2022-11-12T15:18:18.565Z,9.64
2022-11-12T15:21:07.839Z,9.77
2022-11-12T15:24:03.691Z,9.80
2022-11-12T15:26:50.962Z,9.61
2022-11-12T15:29:37.328Z,9.51
2022-11-12T15:32:23.410Z,9.46
2022-11-12T15:35:33.529Z,9.34
2022-11-12T15:38:25.828Z,9.30
2022-11-12T15:41:30.310Z,9.16
2022-11-12T15:44:16.608Z,9.10
2022-11-12T15:47:03.489Z,9.01
2022-11-12T15:49:58.908Z,8.89
2022-11-12T15:52:45.879Z,8.80
2022-11-12T15:55:33.108Z,8.71
2022-11-12T15:58:27.493Z,8.63
2022-11-12T16:01:14.020Z,8.50
2022-11-12T16:04:00.110Z,8.46
2022-11-12T16:06:46.274Z,8.44
2022-11-12T16:09:32.239Z,8.42
2022-11-12T16:12:18.828Z,8.38
2022-11-12T16:15:19.515Z,8.35
2022-11-12T16:18:05.411Z,8.31
2022-11-12T16:20:51.417Z,8.29
2022-11-12T16:23:37.647Z,8.30
2022-11-12T16:26:28.358Z,8.33
2022-11-12T16:29:14.739Z,8.39
2022-11-12T16:32:00.945Z,8.46
2022-11-12T16:34:47.404Z,8.50
2022-11-12T16:37:33.798Z,8.49
2022-11-12T16:40:25.827Z,8.47
2022-11-12T16:43:11.864Z,8.42
2022-11-12T16:45:59.037Z,8.36
2022-11-12T16:48:44.928Z,8.28
2022-11-12T16:51:30.805Z,8.21
2022-11-12T16:54:16.835Z,8.16
2022-11-12T16:57:02.977Z,8.13
2022-11-12T16:59:49.189Z,8.12
2022-11-12T17:02:38.035Z,8.10
2022-11-12T17:05:28.656Z,8.07
2022-11-12T17:08:14.713Z,8.03
2022-11-12T17:11:06.566Z,7.98
2022-11-12T17:13:52.976Z,7.97
2022-11-12T17:16:39.019Z,7.96
2022-11-12T17:19:25.238Z,7.92
2022-11-12T17:22:11.439Z,7.88
2022-11-12T17:24:57.339Z,7.83
2022-11-12T17:27:43.359Z,7.81
2022-11-12T17:30:29.571Z,7.92
2022-11-12T17:33:15.677Z,7.89
2022-11-12T17:36:03.296Z,7.86
2022-11-12T17:38:53.186Z,7.86
2022-11-12T17:41:39.729Z,7.81
2022-11-12T17:44:25.930Z,8.01
2022-11-12T17:47:11.875Z,8.37
2022-11-12T17:49:58.018Z,8.70
2022-11-12T17:52:43.828Z,8.74
2022-11-12T17:55:29.903Z,8.88
2022-11-12T17:58:15.847Z,8.86
2022-11-12T18:01:21.942Z,8.71
2022-11-12T18:04:10.220Z,8.88
2022-11-12T18:06:56.161Z,8.80
2022-11-12T18:09:42.020Z,8.69
2022-11-12T18:12:28.048Z,8.68
2022-11-12T18:15:14.117Z,8.81
2022-11-12T18:18:00.260Z,8.65
2022-11-12T18:20:46.275Z,8.52
2022-11-12T18:23:32.239Z,8.58
2022-11-12T18:26:19.358Z,8.68
2022-11-12T18:29:05.894Z,8.63
2022-11-12T18:31:51.880Z,8.58
2022-11-12T18:34:41.932Z,8.49
2022-11-12T18:37:27.749Z,8.44
2022-11-12T18:40:13.896Z,8.39
2022-11-12T18:42:59.928Z,8.29
2022-11-12T18:45:54.299Z,8.39
2022-11-12T18:48:43.538Z,8.27
2022-11-12T18:51:29.886Z,8.07
2022-11-12T18:54:16.352Z,7.90
2022-11-12T18:57:02.105Z,7.79
2022-11-12T18:59:48.290Z,7.68
2022-11-12T19:02:34.417Z,7.63
2022-11-12T19:05:22.169Z,7.65
2022-11-12T19:08:08.326Z,7.75
2022-11-12T19:11:01.589Z,7.90
2022-11-12T19:13:51.881Z,7.97
2022-11-12T19:16:42.448Z,7.93
2022-11-12T19:19:28.541Z,7.91
2022-11-12T19:22:14.626Z,7.79
2022-11-12T19:25:02.700Z,7.75
2022-11-12T19:27:48.989Z,7.66
2022-11-12T19:30:35.203Z,7.61
2022-11-12T19:33:21.159Z,7.44
2022-11-12T19:36:09.580Z,7.40
2022-11-12T19:39:02.557Z,7.35
2022-11-12T19:41:48.704Z,7.35
2022-11-12T19:44:35.124Z,7.23
2022-11-12T19:47:20.887Z,7.17
2022-11-12T19:50:07.405Z,7.10
2022-11-12T19:52:54.772Z,6.99
2022-11-12T19:55:40.652Z,6.83
2022-11-12T19:58:26.917Z,6.70
2022-11-12T20:01:16.421Z,6.57
2022-11-12T20:04:02.185Z,6.45
2022-11-12T20:06:48.175Z,6.37
2022-11-12T20:09:34.350Z,6.33
2022-11-12T20:12:20.248Z,6.72
2022-11-12T20:15:06.987Z,6.61
2022-11-12T20:17:53.270Z,6.52
2022-11-12T20:20:39.189Z,6.62
2022-11-12T20:23:26.433Z,6.73
2022-11-12T20:26:15.228Z,6.85
2022-11-12T20:29:00.998Z,6.89
2022-11-12T20:31:47.448Z,6.94
2022-11-12T20:34:33.448Z,6.97
2022-11-12T20:37:19.444Z,6.89
2022-11-12T20:40:06.219Z,6.83
2022-11-12T20:42:52.288Z,6.87
2022-11-12T20:45:38.171Z,6.81
2022-11-12T20:48:24.787Z,6.72
2022-11-12T20:51:24.153Z,6.64
2022-11-12T20:54:11.240Z,6.73
2022-11-12T20:56:57.545Z,6.91
2022-11-12T20:59:43.468Z,7.13
2022-11-12T21:02:29.703Z,7.23
2022-11-12T21:05:15.637Z,7.35
2022-11-12T21:08:01.837Z,7.33
2022-11-12T21:10:51.249Z,7.23
2022-11-12T21:13:38.742Z,7.07
2022-11-12T21:16:25.079Z,6.78
2022-11-12T21:19:11.209Z,6.46
2022-11-12T21:21:57.399Z,6.04
2022-11-12T21:24:43.489Z,5.83
2022-11-12T21:27:29.448Z,5.61
2022-11-12T21:30:15.609Z,5.30
2022-11-12T21:33:02.357Z,5.04
2022-11-12T21:35:53.498Z,4.89
2022-11-12T21:38:39.209Z,4.76
2022-11-12T21:41:27.251Z,4.71
2022-11-12T21:44:13.282Z,4.69
2022-11-12T21:46:59.377Z,4.68
2022-11-12T21:49:45.246Z,4.65
2022-11-12T21:52:31.277Z,4.72
2022-11-12T21:55:17.394Z,4.78
2022-11-12T21:58:03.295Z,4.85
2022-11-12T22:00:49.149Z,4.90
2022-11-12T22:03:35.041Z,4.89
2022-11-12T22:06:23.417Z,4.81
2022-11-12T22:09:09.438Z,4.71
2022-11-12T22:11:55.507Z,4.62
2022-11-12T22:14:41.624Z,4.53
2022-11-12T22:17:27.670Z,4.47
2022-11-12T22:20:13.524Z,4.45
2022-11-12T22:22:59.494Z,4.44
2022-11-12T22:25:45.589Z,4.45
2022-11-12T22:28:31.694Z,4.45
2022-11-12T22:31:23.327Z,4.41
2022-11-12T22:34:09.500Z,4.38
2022-11-12T22:36:56.027Z,4.62
2022-11-12T22:39:41.940Z,4.77
2022-11-12T22:42:28.150Z,4.97
2022-11-12T22:45:14.183Z,5.25
2022-11-12T22:48:00.308Z,5.46
2022-11-12T22:50:46.449Z,5.47
2022-11-12T22:53:33.110Z,5.40
2022-11-12T22:56:19.105Z,5.13
2022-11-12T22:59:05.475Z,4.82
2022-11-12T23:01:51.510Z,4.65
2022-11-12T23:04:37.475Z,4.50
2022-11-12T23:07:23.573Z,4.34
2022-11-12T23:10:09.744Z,4.21
2022-11-12T23:12:56.159Z,4.15
2022-11-12T23:15:46.129Z,4.13
2022-11-12T23:18:31.885Z,4.00
2022-11-12T23:21:20.614Z,3.99
2022-11-12T23:24:07.159Z,3.94
2022-11-12T23:26:53.258Z,3.85
2022-11-12T23:29:39.148Z,3.88
2022-11-12T23:32:25.117Z,3.88
2022-11-12T23:35:11.189Z,3.86
2022-11-12T23:37:57.459Z,3.81
2022-11-12T23:40:43.325Z,3.77
2022-11-12T23:43:29.551Z,3.72
2022-11-12T23:46:16.258Z,3.68
2022-11-12T23:49:02.129Z,3.61
2022-11-12T23:51:48.109Z,3.50
2022-11-12T23:54:33.969Z,3.56
2022-11-12T23:57:19.888Z,3.63
